createdAt,value
2022-12-19T00:00:02.752Z,-8.2
2022-12-19T00:20:02.833Z,-8.2
2022-12-19T00:40:03.424Z,-8.2
2022-12-19T01:00:08.979Z,-8.2
2022-12-19T01:20:02.798Z,-8.3
2022-12-19T01:40:02.572Z,-8.2
2022-12-19T02:00:03.368Z,-8.1
2022-12-19T02:20:02.384Z,-8.3
2022-12-19T02:40:03.069Z,-8.4
2022-12-19T03:00:03.188Z,-8.4
2022-12-19T03:20:02.539Z,-8.4
2022-12-19T03:40:03.232Z,-8.3
2022-12-19T04:00:03.194Z,-8.5
2022-12-19T04:20:02.497Z,-8.4
2022-12-19T04:40:03.208Z,-8.2
2022-12-19T05:00:03.037Z,-8.3
2022-12-19T05:20:02.454Z,-8.2
2022-12-19T05:40:03.137Z,-8.1
2022-12-19T06:00:02.877Z,-8.1
2022-12-19T06:20:02.421Z,-8
2022-12-19T06:40:03.171Z,-7.7
2022-12-19T07:00:02.859Z,-7.3
2022-12-19T07:20:02.882Z,-7.2
2022-12-19T07:40:02.767Z,-6.9
2022-12-19T08:00:03.296Z,-6.6
2022-12-19T08:20:03.330Z,-6.4
2022-12-19T08:40:02.689Z,-6
2022-12-19T09:00:04.320Z,-5.5
2022-12-19T09:20:03.041Z,-5.2
2022-12-19T09:40:02.843Z,-4.8
2022-12-19T10:00:03.217Z,-4.5
2022-12-19T10:20:03.091Z,-4.2
2022-12-19T10:40:02.720Z,-3.8
2022-12-19T11:00:02.784Z,-3.3
2022-12-19T11:26:27.106Z,-2.8
2022-12-19T11:40:02.746Z,-2.5
2022-12-19T12:00:05.529Z,-2.5
2022-12-19T12:27:21.688Z,-2.5
2022-12-19T12:40:02.795Z,-2.5
2022-12-19T13:00:03.205Z,-2.3
2022-12-19T13:20:03.236Z,-2.4
2022-12-19T13:40:11.901Z,-2.2
2022-12-19T14:00:03.740Z,-2.3
2022-12-19T14:20:06.881Z,-2.4
2022-12-19T14:40:02.640Z,-2.4
2022-12-19T15:00:03.946Z,-2.2
2022-12-19T15:20:02.402Z,-2.2
2022-12-19T15:40:02.817Z,-2
2022-12-19T16:00:02.641Z,-2
2022-12-19T16:20:02.904Z,-1.9
2022-12-19T16:40:02.483Z,-1.7
2022-12-19T17:00:03.465Z,-1.5
2022-12-19T17:20:03.165Z,-1.3
2022-12-19T17:40:02.746Z,-1.2
2022-12-19T18:00:03.770Z,-1
2022-12-19T18:20:02.782Z,-0.9
2022-12-19T18:40:02.293Z,-0.7
2022-12-19T19:00:02.943Z,-0.5
2022-12-19T19:20:02.925Z,-0.6
2022-12-19T19:40:02.727Z,-0.3
2022-12-19T20:00:03.333Z,-0.3
2022-12-19T20:20:03.278Z,-0.3
2022-12-19T20:40:02.631Z,-0.2
2022-12-19T21:00:03.209Z,-0.3
2022-12-19T21:20:02.350Z,-0.4
2022-12-19T21:40:02.944Z,-0.4
2022-12-19T22:00:02.967Z,-0.6
2022-12-19T22:20:02.492Z,-0.8
2022-12-19T22:40:03.148Z,-0.9
2022-12-19T23:00:02.793Z,-0.8
2022-12-19T23:20:02.972Z,-0.6
2022-12-19T23:40:02.718Z,-0.8
